Airfield :
LOGIN :

Register | Disclaimer

   EN    FR    IT 

 










Legend :    VFR   Marginal VFR   IFR   Intensive IFR   Very Intensive IFR
Visi :
Ceiling :
>= 8 km
>= 3000ft
5 to 8 km
1000 to 3000 ft
1500m to 5 km
500 to 1000 ft
800 to 1500m
200 to 500 ft
< 800m
< 200 ft
Symbols :   Thunderstorms  Fog  Heavy snow  Heavy precipitations  Wind > 20 kt
SIGMETs :     Misc.  Thunderstorms  Icing  Turbulence  Mountain Waves  Volcanic Ashes






- Airport Elevation : 16 ft
- IATA code : SDR


LEXJ - Santander Cantabria

CURRENT METAR :
  • 151330Z 34006KT 300V030 9999 FEW018 SCT025 14/11 Q1008

EXPIRED METARs :
  • 151300Z 34006KT 290V020 9999 FEW018 16/12 Q1008
  • 151230Z 31007KT 280V350 9999 FEW015 16/12 Q1007
  • 151200Z VRB02KT 9999 FEW015 16/12 Q1007
  • 151130Z 04004KT 360V080 9999 FEW015 15/13 Q1007
  • 151100Z VRB02KT 9999 FEW015 14/12 Q1008

TAF TAF LEXJ
Valid from the 15 at 09:00 until the 16 at 09:00 UTC


150800Z 1509/1609 VRB05KT 9999 SCT020 TX14/1514Z TN09/1522Z
TEMPO 1509/1521 BKN014
PROB30
TEMPO 1516/1522 3000 RA BKN010
TEMPO 1523/1603 20010KT



MET'MAP, your aeronautical weather chart ! - Copyright ORBIFLY December 2007 - Disclaimer

ORBIFLY MET'MAP TEAM :

Programming & Development : Alexandra Zaïnal
Concept & original design : Baudouin d'Aumeries
Assistance for programming : Marc-Olivier Méhu
Technical & hardware support : Manuel Goepfert

Contact : metmap@orbifly.com




SOURCES & CREDITS :

   NOAA